sensor_id;sensor_type;location;lat;lon;timestamp;pressure;altitude;pressure_sealevel;temperature;humidity
67373;BME280;54257;54.496;18.412;2023-06-22T00:02:34;99870.23;;;19.27;79.51
67373;BME280;54257;54.496;18.412;2023-06-22T00:05:42;99874.13;;;19.23;79.57
67373;BME280;54257;54.496;18.412;2023-06-22T00:08:20;99875.00;;;19.23;79.47
67373;BME280;54257;54.496;18.412;2023-06-22T00:11:15;99871.97;;;19.19;79.59
67373;BME280;54257;54.496;18.412;2023-06-22T00:13:51;99873.00;;;19.18;79.43
67373;BME280;54257;54.496;18.412;2023-06-22T00:16:58;99873.16;;;19.19;79.34
67373;BME280;54257;54.496;18.412;2023-06-22T00:19:25;99876.73;;;19.23;79.48
67373;BME280;54257;54.496;18.412;2023-06-22T00:22:22;99885.25;;;19.21;79.26
67373;BME280;54257;54.496;18.412;2023-06-22T00:25:06;99883.73;;;19.19;79.44
67373;BME280;54257;54.496;18.412;2023-06-22T00:31:10;99886.89;;;19.09;79.99
67373;BME280;54257;54.496;18.412;2023-06-22T00:34:00;99891.00;;;19.01;80.01
67373;BME280;54257;54.496;18.412;2023-06-22T00:37:03;99894.04;;;18.96;80.21
67373;BME280;54257;54.496;18.412;2023-06-22T00:40:00;99898.40;;;18.94;80.19
67373;BME280;54257;54.496;18.412;2023-06-22T00:42:29;99897.96;;;18.91;80.73
67373;BME280;54257;54.496;18.412;2023-06-22T00:44:58;99900.31;;;18.85;80.58
67373;BME280;54257;54.496;18.412;2023-06-22T00:47:57;99893.64;;;18.81;80.84
67373;BME280;54257;54.496;18.412;2023-06-22T00:50:48;99895.56;;;18.80;81.06
67373;BME280;54257;54.496;18.412;2023-06-22T00:57:24;99907.77;;;18.74;81.31
67373;BME280;54257;54.496;18.412;2023-06-22T01:00:47;99905.73;;;18.71;81.69
67373;BME280;54257;54.496;18.412;2023-06-22T01:03:43;99904.08;;;18.68;81.72
67373;BME280;54257;54.496;18.412;2023-06-22T01:14:24;99897.30;;;18.58;82.12
67373;BME280;54257;54.496;18.412;2023-06-22T01:17:33;99899.41;;;18.56;82.18
67373;BME280;54257;54.496;18.412;2023-06-22T01:20:43;99903.45;;;18.52;82.45
67373;BME280;54257;54.496;18.412;2023-06-22T01:29:55;99906.16;;;18.45;82.27
67373;BME280;54257;54.496;18.412;2023-06-22T01:33:50;99911.55;;;18.44;82.52
67373;BME280;54257;54.496;18.412;2023-06-22T01:37:05;99914.02;;;18.41;82.64
67373;BME280;54257;54.496;18.412;2023-06-22T01:39:56;99906.98;;;18.38;82.63
67373;BME280;54257;54.496;18.412;2023-06-22T01:46:46;99909.54;;;18.29;83.21
67373;BME280;54257;54.496;18.412;2023-06-22T01:49:19;99910.31;;;18.23;83.60
67373;BME280;54257;54.496;18.412;2023-06-22T01:51:59;99906.25;;;18.18;83.97
67373;BME280;54257;54.496;18.412;2023-06-22T01:54:35;99907.47;;;18.18;83.81
67373;BME280;54257;54.496;18.412;2023-06-22T01:58:03;99909.55;;;18.17;83.88
67373;BME280;54257;54.496;18.412;2023-06-22T02:00:40;99913.38;;;18.16;84.22
67373;BME280;54257;54.496;18.412;2023-06-22T02:08:02;99917.39;;;18.13;84.47
67373;BME280;54257;54.496;18.412;2023-06-22T02:10:56;99907.78;;;18.09;84.74
67373;BME280;54257;54.496;18.412;2023-06-22T02:20:15;99913.27;;;18.11;85.05
67373;BME280;54257;54.496;18.412;2023-06-22T02:23:20;99917.45;;;18.10;84.98
67373;BME280;54257;54.496;18.412;2023-06-22T02:26:19;99920.06;;;18.08;85.30
67373;BME280;54257;54.496;18.412;2023-06-22T02:28:55;99923.37;;;18.06;85.44
67373;BME280;54257;54.496;18.412;2023-06-22T02:32:15;99932.94;;;18.03;85.99
67373;BME280;54257;54.496;18.412;2023-06-22T02:34:55;99937.30;;;18.00;86.69
67373;BME280;54257;54.496;18.412;2023-06-22T02:37:35;99936.30;;;17.97;87.42
67373;BME280;54257;54.496;18.412;2023-06-22T02:40:37;99936.96;;;17.98;87.42
67373;BME280;54257;54.496;18.412;2023-06-22T02:43:30;99944.25;;;17.97;87.84
67373;BME280;54257;54.496;18.412;2023-06-22T02:46:26;99954.40;;;17.99;88.07
67373;BME280;54257;54.496;18.412;2023-06-22T02:49:24;99958.70;;;18.02;88.42
67373;BME280;54257;54.496;18.412;2023-06-22T02:52:13;99968.54;;;18.03;88.65
67373;BME280;54257;54.496;18.412;2023-06-22T02:54:52;99971.25;;;18.08;88.92
67373;BME280;54257;54.496;18.412;2023-06-22T02:58:03;99971.86;;;18.12;89.03
67373;BME280;54257;54.496;18.412;2023-06-22T03:01:07;99966.62;;;18.17;89.17
67373;BME280;54257;54.496;18.412;2023-06-22T03:04:18;99962.73;;;18.21;89.00
67373;BME280;54257;54.496;18.412;2023-06-22T03:07:29;99961.64;;;18.26;88.53
67373;BME280;54257;54.496;18.412;2023-06-22T03:10:09;99963.62;;;18.33;88.46
67373;BME280;54257;54.496;18.412;2023-06-22T03:13:21;99969.31;;;18.34;88.36
67373;BME280;54257;54.496;18.412;2023-06-22T03:16:27;99971.74;;;18.33;88.42
67373;BME280;54257;54.496;18.412;2023-06-22T03:19:16;99977.52;;;18.39;88.20
67373;BME280;54257;54.496;18.412;2023-06-22T03:21:42;99976.80;;;18.42;88.02
67373;BME280;54257;54.496;18.412;2023-06-22T03:24:11;99979.14;;;18.46;88.11
67373;BME280;54257;54.496;18.412;2023-06-22T03:26:38;99980.09;;;18.53;87.91
67373;BME280;54257;54.496;18.412;2023-06-22T03:29:04;99984.68;;;18.57;87.88
67373;BME280;54257;54.496;18.412;2023-06-22T03:31:31;99983.73;;;18.64;87.86
67373;BME280;54257;54.496;18.412;2023-06-22T03:33:57;99991.45;;;18.69;87.52
67373;BME280;54257;54.496;18.412;2023-06-22T03:36:23;100000.38;;;18.74;87.30
67373;BME280;54257;54.496;18.412;2023-06-22T03:38:51;100002.59;;;18.76;86.88
67373;BME280;54257;54.496;18.412;2023-06-22T03:41:18;100006.89;;;18.78;86.67
67373;BME280;54257;54.496;18.412;2023-06-22T03:43:44;100009.29;;;18.79;86.52
67373;BME280;54257;54.496;18.412;2023-06-22T03:46:10;100007.04;;;18.80;86.43
67373;BME280;54257;54.496;18.412;2023-06-22T03:48:37;100016.23;;;18.78;85.97
67373;BME280;54257;54.496;18.412;2023-06-22T03:51:04;100019.86;;;18.79;86.08
67373;BME280;54257;54.496;18.412;2023-06-22T03:53:31;100023.63;;;18.80;85.92
67373;BME280;54257;54.496;18.412;2023-06-22T03:56:06;100021.55;;;18.81;85.90
67373;BME280;54257;54.496;18.412;2023-06-22T03:59:02;100029.13;;;18.84;85.63
67373;BME280;54257;54.496;18.412;2023-06-22T04:01:52;100031.01;;;18.85;85.64
67373;BME280;54257;54.496;18.412;2023-06-22T04:04:53;100033.52;;;18.90;85.55
67373;BME280;54257;54.496;18.412;2023-06-22T04:07:26;100036.12;;;18.89;85.40
67373;BME280;54257;54.496;18.412;2023-06-22T04:10:22;100032.15;;;18.90;85.28
67373;BME280;54257;54.496;18.412;2023-06-22T04:17:06;100035.33;;;18.96;84.72
67373;BME280;54257;54.496;18.412;2023-06-22T04:20:01;100038.00;;;18.92;84.90
67373;BME280;54257;54.496;18.412;2023-06-22T04:25:52;100032.55;;;18.96;84.34
67373;BME280;54257;54.496;18.412;2023-06-22T04:28:33;100034.41;;;19.00;84.16
67373;BME280;54257;54.496;18.412;2023-06-22T04:31:20;100032.64;;;19.01;83.78
67373;BME280;54257;54.496;18.412;2023-06-22T04:34:20;100038.05;;;18.99;83.57
67373;BME280;54257;54.496;18.412;2023-06-22T04:37:20;100039.90;;;19.02;83.53
67373;BME280;54257;54.496;18.412;2023-06-22T04:40:06;100031.33;;;18.97;83.22
67373;BME280;54257;54.496;18.412;2023-06-22T04:42:52;100033.71;;;18.99;83.32
67373;BME280;54257;54.496;18.412;2023-06-22T04:50:00;100037.73;;;19.09;82.98
67373;BME280;54257;54.496;18.412;2023-06-22T04:52:42;100041.27;;;19.13;82.56
67373;BME280;54257;54.496;18.412;2023-06-22T04:55:14;100042.65;;;19.14;82.33
67373;BME280;54257;54.496;18.412;2023-06-22T04:57:55;100037.04;;;19.18;82.05
67373;BME280;54257;54.496;18.412;2023-06-22T05:00:25;100036.41;;;19.24;81.93
67373;BME280;54257;54.496;18.412;2023-06-22T05:02:53;100034.75;;;19.30;81.60
67373;BME280;54257;54.496;18.412;2023-06-22T05:05:45;100032.33;;;19.38;81.26
67373;BME280;54257;54.496;18.412;2023-06-22T05:08:37;100034.81;;;19.45;80.95
67373;BME280;54257;54.496;18.412;2023-06-22T05:11:31;100023.80;;;19.50;80.29
67373;BME280;54257;54.496;18.412;2023-06-22T05:14:15;100024.23;;;19.53;79.23
67373;BME280;54257;54.496;18.412;2023-06-22T05:16:59;100028.91;;;19.56;78.47
67373;BME280;54257;54.496;18.412;2023-06-22T05:20:22;100033.98;;;19.63;77.43
67373;BME280;54257;54.496;18.412;2023-06-22T05:25:38;100023.70;;;19.83;78.00
67373;BME280;54257;54.496;18.412;2023-06-22T05:28:07;100027.19;;;19.99;76.91
67373;BME280;54257;54.496;18.412;2023-06-22T05:34:00;100032.51;;;20.18;75.09
67373;BME280;54257;54.496;18.412;2023-06-22T05:37:09;100034.97;;;20.25;73.80
67373;BME280;54257;54.496;18.412;2023-06-22T05:40:11;100036.83;;;20.27;72.91
67373;BME280;54257;54.496;18.412;2023-06-22T05:46:12;100029.48;;;20.46;73.42
67373;BME280;54257;54.496;18.412;2023-06-22T05:49:02;100029.98;;;20.70;73.29
67373;BME280;54257;54.496;18.412;2023-06-22T05:51:41;100030.51;;;20.84;72.81
67373;BME280;54257;54.496;18.412;2023-06-22T05:54:22;100034.80;;;21.07;72.21
67373;BME280;54257;54.496;18.412;2023-06-22T05:56:49;100041.30;;;21.18;70.64
67373;BME280;54257;54.496;18.412;2023-06-22T05:59:15;100051.81;;;21.14;69.27
67373;BME280;54257;54.496;18.412;2023-06-22T06:01:41;100050.52;;;21.17;69.04
67373;BME280;54257;54.496;18.412;2023-06-22T06:04:07;100050.10;;;21.28;68.52
67373;BME280;54257;54.496;18.412;2023-06-22T06:06:36;100041.94;;;21.41;68.21
67373;BME280;54257;54.496;18.412;2023-06-22T06:09:04;100038.98;;;21.61;68.37
67373;BME280;54257;54.496;18.412;2023-06-22T06:11:30;100044.80;;;21.83;67.57
67373;BME280;54257;54.496;18.412;2023-06-22T06:13:56;100050.63;;;21.98;66.60
67373;BME280;54257;54.496;18.412;2023-06-22T06:16:23;100046.65;;;22.10;64.43
67373;BME280;54257;54.496;18.412;2023-06-22T06:18:49;100039.52;;;22.16;62.74
67373;BME280;54257;54.496;18.412;2023-06-22T06:21:16;100041.70;;;22.25;62.86
67373;BME280;54257;54.496;18.412;2023-06-22T06:23:42;100045.00;;;22.36;62.26
67373;BME280;54257;54.496;18.412;2023-06-22T06:26:08;100051.63;;;22.47;61.29
67373;BME280;54257;54.496;18.412;2023-06-22T06:28:35;100053.42;;;22.56;61.99
67373;BME280;54257;54.496;18.412;2023-06-22T06:31:01;100048.58;;;22.83;62.49
67373;BME280;54257;54.496;18.412;2023-06-22T06:33:27;100044.78;;;23.09;60.59
67373;BME280;54257;54.496;18.412;2023-06-22T06:35:53;100042.30;;;23.26;58.93
67373;BME280;54257;54.496;18.412;2023-06-22T06:38:21;100043.89;;;23.45;58.59
67373;BME280;54257;54.496;18.412;2023-06-22T06:40:47;100050.70;;;23.60;57.81
67373;BME280;54257;54.496;18.412;2023-06-22T06:43:14;100049.74;;;23.73;55.47
67373;BME280;54257;54.496;18.412;2023-06-22T06:45:40;100052.63;;;23.80;54.96
67373;BME280;54257;54.496;18.412;2023-06-22T06:48:07;100055.39;;;23.85;55.01
67373;BME280;54257;54.496;18.412;2023-06-22T06:50:33;100062.15;;;23.96;54.59
67373;BME280;54257;54.496;18.412;2023-06-22T06:52:59;100066.13;;;24.07;55.16
67373;BME280;54257;54.496;18.412;2023-06-22T06:55:25;100063.47;;;24.26;53.93
67373;BME280;54257;54.496;18.412;2023-06-22T06:57:51;100066.44;;;24.45;53.45
67373;BME280;54257;54.496;18.412;2023-06-22T07:00:18;100073.66;;;24.57;52.64
67373;BME280;54257;54.496;18.412;2023-06-22T07:02:45;100082.08;;;24.61;52.71
67373;BME280;54257;54.496;18.412;2023-06-22T07:05:16;100076.89;;;24.81;52.87
67373;BME280;54257;54.496;18.412;2023-06-22T07:07:42;100075.84;;;25.07;52.92
67373;BME280;54257;54.496;18.412;2023-06-22T07:10:11;100080.23;;;25.28;51.59
67373;BME280;54257;54.496;18.412;2023-06-22T07:12:37;100075.52;;;25.48;50.76
67373;BME280;54257;54.496;18.412;2023-06-22T07:15:06;100073.48;;;25.59;50.04
67373;BME280;54257;54.496;18.412;2023-06-22T07:17:36;100074.02;;;25.79;49.87
67373;BME280;54257;54.496;18.412;2023-06-22T07:20:03;100074.48;;;26.00;49.48
67373;BME280;54257;54.496;18.412;2023-06-22T07:22:36;100079.97;;;26.14;49.22
67373;BME280;54257;54.496;18.412;2023-06-22T07:25:03;100072.94;;;26.23;48.41
67373;BME280;54257;54.496;18.412;2023-06-22T07:27:39;100070.88;;;26.37;49.40
67373;BME280;54257;54.496;18.412;2023-06-22T07:30:09;100070.95;;;26.62;48.74
67373;BME280;54257;54.496;18.412;2023-06-22T07:32:35;100081.77;;;26.77;48.06
67373;BME280;54257;54.496;18.412;2023-06-22T07:35:02;100087.66;;;26.86;45.96
67373;BME280;54257;54.496;18.412;2023-06-22T07:37:30;100089.98;;;26.81;46.62
67373;BME280;54257;54.496;18.412;2023-06-22T07:39:56;100098.85;;;26.79;46.00
67373;BME280;54257;54.496;18.412;2023-06-22T07:42:26;100100.28;;;26.75;45.41
67373;BME280;54257;54.496;18.412;2023-06-22T07:44:53;100097.02;;;26.77;44.94
67373;BME280;54257;54.496;18.412;2023-06-22T07:47:20;100089.28;;;26.70;44.90
67373;BME280;54257;54.496;18.412;2023-06-22T07:49:51;100087.48;;;26.75;45.73
67373;BME280;54257;54.496;18.412;2023-06-22T07:52:18;100092.63;;;26.85;44.98
67373;BME280;54257;54.496;18.412;2023-06-22T07:54:45;100087.77;;;26.73;43.82
67373;BME280;54257;54.496;18.412;2023-06-22T07:57:11;100094.37;;;26.63;44.65
67373;BME280;54257;54.496;18.412;2023-06-22T07:59:37;100093.23;;;26.76;45.74
67373;BME280;54257;54.496;18.412;2023-06-22T08:02:04;100098.77;;;26.99;45.02
67373;BME280;54257;54.496;18.412;2023-06-22T08:04:30;100097.08;;;27.19;44.68
67373;BME280;54257;54.496;18.412;2023-06-22T08:07:00;100101.02;;;27.28;43.55
67373;BME280;54257;54.496;18.412;2023-06-22T08:09:31;100097.32;;;27.29;43.77
67373;BME280;54257;54.496;18.412;2023-06-22T08:11:58;100100.26;;;27.43;44.88
67373;BME280;54257;54.496;18.412;2023-06-22T08:14:29;100100.01;;;27.73;44.39
67373;BME280;54257;54.496;18.412;2023-06-22T08:16:58;100102.27;;;28.00;43.62
67373;BME280;54257;54.496;18.412;2023-06-22T08:19:25;100108.04;;;28.27;43.18
67373;BME280;54257;54.496;18.412;2023-06-22T08:21:52;100107.01;;;28.49;42.68
67373;BME280;54257;54.496;18.412;2023-06-22T08:24:19;100100.48;;;28.52;41.17
67373;BME280;54257;54.496;18.412;2023-06-22T08:26:47;100102.40;;;28.43;40.93
67373;BME280;54257;54.496;18.412;2023-06-22T08:29:13;100101.07;;;28.45;41.22
67373;BME280;54257;54.496;18.412;2023-06-22T08:31:39;100095.44;;;28.67;41.60
67373;BME280;54257;54.496;18.412;2023-06-22T08:34:06;100095.72;;;28.81;40.93
67373;BME280;54257;54.496;18.412;2023-06-22T08:36:33;100095.41;;;28.74;39.10
67373;BME280;54257;54.496;18.412;2023-06-22T08:39:07;100096.04;;;28.78;39.26
67373;BME280;54257;54.496;18.412;2023-06-22T08:41:34;100092.34;;;28.97;39.01
67373;BME280;54257;54.496;18.412;2023-06-22T08:44:00;100100.50;;;29.15;38.97
67373;BME280;54257;54.496;18.412;2023-06-22T08:46:27;100096.96;;;29.30;38.90
67373;BME280;54257;54.496;18.412;2023-06-22T08:48:58;100095.33;;;29.55;38.85
67373;BME280;54257;54.496;18.412;2023-06-22T08:51:31;100092.08;;;29.71;37.54
67373;BME280;54257;54.496;18.412;2023-06-22T08:53:59;100097.21;;;29.82;37.85
67373;BME280;54257;54.496;18.412;2023-06-22T08:56:26;100097.02;;;29.91;37.67
67373;BME280;54257;54.496;18.412;2023-06-22T08:58:52;100107.81;;;30.07;37.94
67373;BME280;54257;54.496;18.412;2023-06-22T09:01:19;100106.25;;;30.16;37.08
67373;BME280;54257;54.496;18.412;2023-06-22T09:03:45;100102.02;;;30.21;37.89
67373;BME280;54257;54.496;18.412;2023-06-22T09:06:20;100107.26;;;30.50;37.79
67373;BME280;54257;54.496;18.412;2023-06-22T09:08:47;100106.30;;;30.62;36.24
67373;BME280;54257;54.496;18.412;2023-06-22T09:11:14;100101.70;;;30.59;35.86
67373;BME280;54257;54.496;18.412;2023-06-22T09:13:40;100100.42;;;30.52;35.71
67373;BME280;54257;54.496;18.412;2023-06-22T09:16:06;100099.64;;;30.42;35.74
67373;BME280;54257;54.496;18.412;2023-06-22T09:18:33;100100.67;;;30.29;35.51
67373;BME280;54257;54.496;18.412;2023-06-22T09:21:00;100098.51;;;30.13;35.60
67373;BME280;54257;54.496;18.412;2023-06-22T09:23:26;100096.83;;;30.09;36.24
67373;BME280;54257;54.496;18.412;2023-06-22T09:25:52;100097.96;;;30.16;36.64
67373;BME280;54257;54.496;18.412;2023-06-22T09:28:19;100098.90;;;30.24;35.82
67373;BME280;54257;54.496;18.412;2023-06-22T09:30:45;100099.98;;;30.34;36.50
67373;BME280;54257;54.496;18.412;2023-06-22T09:33:11;100099.84;;;30.61;36.06
67373;BME280;54257;54.496;18.412;2023-06-22T09:35:37;100098.24;;;30.86;35.96
67373;BME280;54257;54.496;18.412;2023-06-22T09:38:03;100095.00;;;31.06;35.37
67373;BME280;54257;54.496;18.412;2023-06-22T09:40:29;100093.54;;;31.17;34.61
67373;BME280;54257;54.496;18.412;2023-06-22T09:42:55;100089.15;;;31.22;34.71
67373;BME280;54257;54.496;18.412;2023-06-22T09:45:21;100081.86;;;31.41;35.02
67373;BME280;54257;54.496;18.412;2023-06-22T09:47:48;100091.74;;;31.60;34.17
67373;BME280;54257;54.496;18.412;2023-06-22T09:50:14;100089.84;;;31.64;33.91
67373;BME280;54257;54.496;18.412;2023-06-22T09:52:40;100083.98;;;31.51;33.09
67373;BME280;54257;54.496;18.412;2023-06-22T09:55:10;100082.91;;;31.47;33.09
67373;BME280;54257;54.496;18.412;2023-06-22T09:57:36;100083.15;;;31.25;33.07
67373;BME280;54257;54.496;18.412;2023-06-22T10:00:03;100086.44;;;31.29;34.30
67373;BME280;54257;54.496;18.412;2023-06-22T10:02:31;100088.39;;;31.54;34.34
67373;BME280;54257;54.496;18.412;2023-06-22T10:04:57;100094.10;;;31.71;33.26
67373;BME280;54257;54.496;18.412;2023-06-22T10:07:23;100088.55;;;31.65;32.76
67373;BME280;54257;54.496;18.412;2023-06-22T10:09:49;100088.13;;;31.58;32.52
67373;BME280;54257;54.496;18.412;2023-06-22T10:12:16;100094.24;;;31.46;32.17
67373;BME280;54257;54.496;18.412;2023-06-22T10:14:42;100099.63;;;31.50;32.63
67373;BME280;54257;54.496;18.412;2023-06-22T10:17:08;100093.68;;;31.55;32.44
67373;BME280;54257;54.496;18.412;2023-06-22T10:19:34;100098.10;;;31.54;32.72
67373;BME280;54257;54.496;18.412;2023-06-22T10:22:04;100103.05;;;31.55;32.92
67373;BME280;54257;54.496;18.412;2023-06-22T10:24:31;100097.91;;;31.60;32.23
67373;BME280;54257;54.496;18.412;2023-06-22T10:26:57;100095.90;;;31.48;32.89
67373;BME280;54257;54.496;18.412;2023-06-22T10:29:24;100103.98;;;31.69;32.90
67373;BME280;54257;54.496;18.412;2023-06-22T10:31:50;100103.02;;;31.84;32.22
67373;BME280;54257;54.496;18.412;2023-06-22T10:34:17;100105.16;;;31.93;32.31
67373;BME280;54257;54.496;18.412;2023-06-22T10:36:43;100108.11;;;32.09;32.17
67373;BME280;54257;54.496;18.412;2023-06-22T10:39:12;100102.23;;;32.40;32.08
67373;BME280;54257;54.496;18.412;2023-06-22T10:41:38;100099.69;;;32.55;31.29
67373;BME280;54257;54.496;18.412;2023-06-22T10:44:04;100098.92;;;32.56;30.78
67373;BME280;54257;54.496;18.412;2023-06-22T10:46:30;100102.42;;;32.30;30.02
67373;BME280;54257;54.496;18.412;2023-06-22T10:48:56;100108.30;;;32.17;29.83
67373;BME280;54257;54.496;18.412;2023-06-22T10:51:24;100102.59;;;32.27;30.88
67373;BME280;54257;54.496;18.412;2023-06-22T10:53:51;100107.29;;;32.48;30.95
67373;BME280;54257;54.496;18.412;2023-06-22T10:56:18;100103.76;;;32.72;30.77
67373;BME280;54257;54.496;18.412;2023-06-22T10:58:45;100106.16;;;33.00;30.58
67373;BME280;54257;54.496;18.412;2023-06-22T11:01:11;100093.52;;;33.26;30.76
67373;BME280;54257;54.496;18.412;2023-06-22T11:03:37;100096.73;;;33.52;30.48
67373;BME280;54257;54.496;18.412;2023-06-22T11:06:04;100098.20;;;33.61;28.51
67373;BME280;54257;54.496;18.412;2023-06-22T11:08:30;100094.25;;;33.45;28.30
67373;BME280;54257;54.496;18.412;2023-06-22T11:10:56;100093.05;;;33.29;29.16
67373;BME280;54257;54.496;18.412;2023-06-22T11:13:22;100093.05;;;33.35;29.54
67373;BME280;54257;54.496;18.412;2023-06-22T11:15:49;100088.17;;;33.51;30.00
67373;BME280;54257;54.496;18.412;2023-06-22T11:18:16;100084.79;;;33.78;30.14
67373;BME280;54257;54.496;18.412;2023-06-22T11:20:42;100083.83;;;34.09;29.49
67373;BME280;54257;54.496;18.412;2023-06-22T11:23:08;100077.69;;;34.19;28.81
67373;BME280;54257;54.496;18.412;2023-06-22T11:25:35;100074.88;;;34.30;28.76
67373;BME280;54257;54.496;18.412;2023-06-22T11:28:02;100076.73;;;34.31;28.45
67373;BME280;54257;54.496;18.412;2023-06-22T11:30:29;100077.38;;;34.16;27.85
67373;BME280;54257;54.496;18.412;2023-06-22T11:32:59;100076.11;;;34.06;28.49
67373;BME280;54257;54.496;18.412;2023-06-22T11:35:26;100078.30;;;34.20;28.42
67373;BME280;54257;54.496;18.412;2023-06-22T11:37:52;100080.48;;;34.21;27.36
67373;BME280;54257;54.496;18.412;2023-06-22T11:40:19;100084.23;;;34.28;27.68
67373;BME280;54257;54.496;18.412;2023-06-22T11:42:45;100082.11;;;34.30;27.55
67373;BME280;54257;54.496;18.412;2023-06-22T11:45:12;100082.02;;;34.34;27.93
67373;BME280;54257;54.496;18.412;2023-06-22T11:47:42;100082.61;;;34.48;27.85
67373;BME280;54257;54.496;18.412;2023-06-22T11:50:11;100079.52;;;34.56;27.71
67373;BME280;54257;54.496;18.412;2023-06-22T11:52:38;100086.31;;;34.44;26.96
67373;BME280;54257;54.496;18.412;2023-06-22T11:55:07;100080.02;;;34.50;26.91
67373;BME280;54257;54.496;18.412;2023-06-22T11:57:35;100083.82;;;34.46;26.15
67373;BME280;54257;54.496;18.412;2023-06-22T12:00:03;100081.27;;;34.47;26.99
67373;BME280;54257;54.496;18.412;2023-06-22T12:02:41;100078.10;;;34.53;27.12
67373;BME280;54257;54.496;18.412;2023-06-22T12:05:08;100071.40;;;34.46;26.74
67373;BME280;54257;54.496;18.412;2023-06-22T12:07:34;100068.23;;;34.42;26.52
67373;BME280;54257;54.496;18.412;2023-06-22T12:10:01;100065.95;;;34.42;27.31
67373;BME280;54257;54.496;18.412;2023-06-22T12:12:27;100067.77;;;34.52;26.58
67373;BME280;54257;54.496;18.412;2023-06-22T12:14:53;100065.92;;;34.50;25.87
67373;BME280;54257;54.496;18.412;2023-06-22T12:17:20;100070.69;;;34.29;26.02
67373;BME280;54257;54.496;18.412;2023-06-22T12:19:46;100073.02;;;34.20;26.12
67373;BME280;54257;54.496;18.412;2023-06-22T12:22:12;100071.49;;;34.19;26.34
67373;BME280;54257;54.496;18.412;2023-06-22T12:24:38;100069.17;;;34.19;26.86
67373;BME280;54257;54.496;18.412;2023-06-22T12:27:05;100064.02;;;34.23;26.66
67373;BME280;54257;54.496;18.412;2023-06-22T12:29:56;100061.69;;;34.30;27.11
67373;BME280;54257;54.496;18.412;2023-06-22T12:32:48;100065.55;;;34.44;26.85
67373;BME280;54257;54.496;18.412;2023-06-22T12:35:37;100065.56;;;34.19;26.06
67373;BME280;54257;54.496;18.412;2023-06-22T12:38:21;100057.75;;;33.89;26.46
67373;BME280;54257;54.496;18.412;2023-06-22T12:41:11;100055.80;;;33.63;26.41
67373;BME280;54257;54.496;18.412;2023-06-22T12:44:00;100059.98;;;33.51;26.32
67373;BME280;54257;54.496;18.412;2023-06-22T12:46:27;100056.89;;;33.50;26.57
67373;BME280;54257;54.496;18.412;2023-06-22T12:48:56;100057.70;;;33.69;26.27
67373;BME280;54257;54.496;18.412;2023-06-22T12:52:24;100056.73;;;33.99;25.96
67373;BME280;54257;54.496;18.412;2023-06-22T12:54:51;100055.88;;;34.12;26.60
67373;BME280;54257;54.496;18.412;2023-06-22T12:57:18;100055.91;;;34.23;25.75
67373;BME280;54257;54.496;18.412;2023-06-22T13:04:13;100053.80;;;34.05;25.35
67373;BME280;54257;54.496;18.412;2023-06-22T13:06:58;100050.90;;;34.12;25.16
67373;BME280;54257;54.496;18.412;2023-06-22T13:09:29;100050.16;;;33.97;24.71
67373;BME280;54257;54.496;18.412;2023-06-22T13:11:55;100046.14;;;33.87;25.41
67373;BME280;54257;54.496;18.412;2023-06-22T13:14:21;100044.43;;;33.93;25.31
67373;BME280;54257;54.496;18.412;2023-06-22T13:16:48;100041.05;;;34.03;25.38
67373;BME280;54257;54.496;18.412;2023-06-22T13:19:14;100040.38;;;34.11;25.05
67373;BME280;54257;54.496;18.412;2023-06-22T13:21:40;100042.55;;;34.12;25.18
67373;BME280;54257;54.496;18.412;2023-06-22T13:24:06;100036.77;;;34.16;24.88
67373;BME280;54257;54.496;18.412;2023-06-22T13:26:33;100042.83;;;34.02;24.70
67373;BME280;54257;54.496;18.412;2023-06-22T13:28:59;100043.57;;;33.86;24.91
67373;BME280;54257;54.496;18.412;2023-06-22T13:31:26;100049.95;;;33.84;24.82
67373;BME280;54257;54.496;18.412;2023-06-22T13:33:52;100045.19;;;33.79;25.20
67373;BME280;54257;54.496;18.412;2023-06-22T13:36:19;100037.43;;;33.92;25.54
67373;BME280;54257;54.496;18.412;2023-06-22T13:38:48;100037.40;;;33.97;24.44
67373;BME280;54257;54.496;18.412;2023-06-22T13:41:14;100041.00;;;33.94;24.11
67373;BME280;54257;54.496;18.412;2023-06-22T13:43:40;100037.31;;;33.94;24.02
67373;BME280;54257;54.496;18.412;2023-06-22T13:46:06;100038.66;;;33.88;24.16
67373;BME280;54257;54.496;18.412;2023-06-22T13:48:35;100038.60;;;33.86;24.05
67373;BME280;54257;54.496;18.412;2023-06-22T13:51:04;100031.70;;;33.80;24.06
67373;BME280;54257;54.496;18.412;2023-06-22T13:53:30;100035.90;;;33.71;24.21
67373;BME280;54257;54.496;18.412;2023-06-22T13:55:56;100028.94;;;33.76;24.66
67373;BME280;54257;54.496;18.412;2023-06-22T13:58:23;100023.54;;;33.93;25.11
67373;BME280;54257;54.496;18.412;2023-06-22T14:00:49;100025.30;;;34.02;24.03
67373;BME280;54257;54.496;18.412;2023-06-22T14:03:16;100023.78;;;33.94;23.68
67373;BME280;54257;54.496;18.412;2023-06-22T14:05:43;100017.50;;;33.84;23.71
67373;BME280;54257;54.496;18.412;2023-06-22T14:08:09;100020.68;;;33.86;24.07
67373;BME280;54257;54.496;18.412;2023-06-22T14:10:35;100023.04;;;33.90;24.24
67373;BME280;54257;54.496;18.412;2023-06-22T14:13:01;100027.34;;;33.83;24.01
67373;BME280;54257;54.496;18.412;2023-06-22T14:15:27;100022.89;;;33.69;24.20
67373;BME280;54257;54.496;18.412;2023-06-22T14:17:53;100019.63;;;33.68;24.09
67373;BME280;54257;54.496;18.412;2023-06-22T14:20:19;100022.58;;;33.53;23.83
67373;BME280;54257;54.496;18.412;2023-06-22T14:22:47;100025.17;;;33.42;24.14
67373;BME280;54257;54.496;18.412;2023-06-22T14:25:14;100022.73;;;33.42;24.52